Klar, aber dunstig
Nebel/niedere Schichtwolken
Nebel/niedere Schichtwolken
Nebel/niedere Schichtwolken
Klar, aber dunstig
Klar, wolkenlos
Klar, wolkenlos
(°C)
-3°
-3°
-3°
-3°
-1°
(°C)
-8°
-8°
-7°
-6°
-5°
-3°
-2°
SO
SO
SO
SO
SO
SO
SO
(km/h)
8-14
7-13
6-13
4-13
4-12
5-12
5-12
(mm)
0
0
0
0
0
0
0
(%)
0
0
0
0
0
0
0

Sonnenhöhe

/ -16.5°
sun-icon
UV 1
07:52
17:20
Abnehmender Mond (199°)
19:05
09:01

METAR für Bordenau (ETNW)

Zeit Bedingungen Temperatur/
Taupunkt
Wind Sichtweite Wetter Wolken Druck Änderung Roh
-3°C / -4°C 110º 4kt >10km - 1040 - ETNW 070420Z 11004KT 9999 M03/M04 Q1040 BLU+
-4°C / -4°C 90º 3kt >10km - 1041 - ETNW 070320Z 09003KT 9999 M04/M04 Q1041 BLU+
-3°C / -4°C 90º 3kt >10km - 1041 - ETNW 070220Z 09003KT 9999 M03/M04 Q1041 BLU+
-3°C / -4°C 150º 5kt >10km - 1041 - ETNW 070120Z 15005KT 9999 M03/M04 Q1041 BLU+
-3°C / -3°C 130º 2kt >10km - 1041 - ETNW 070020Z 13002KT 9999 M03/M03 Q1041 BLU+
-2°C / -3°C 120º 4kt >10km - 1041 - ETNW 070000Z 12004KT 9999 M02/M03 Q1041 BLU+FCST CNL
-3°C / -3°C 90º 3kt >10km - 1041 Temporary: YLO ETNW 062335Z 09003KT 9999 M03/M03 Q1041 BLU+BLU+ TEMPO YLO
-2°C / -3°C 90º 2kt >10km - 1041 - ETNW 062320Z 09002KT 9999 M02/M03 Q1041 BLU+
-3°C / -3°C 30º 3kt >10km - 1041 - ETNW 062220Z 03003KT 9999 M03/M03 Q1041 BLU+
-2°C / -3°C 160º 2kt >10km - 1041 - ETNW 062120Z 16002KT 9999 M02/M03 Q1041 BLU+
VFR 0°C / -2°C 100º 7kt >10km - Few Clouds 2200ft 1040 - ETNW 062020Z 10007KT 9999 FEW022 00/M02 Q1040 BLU+FCST CNL
VFR -1°C / -2°C 120º 4kt >10km - Few Clouds 2200ft 1040 Temporary: WHT ETNW 061920Z 12004KT 9999 FEW022 M01/M02 Q1040 BLU+BLU+ TEMPO WHT
VFR 1°C / 0°C 160º 4kt >10km - Few Clouds 2000ft 1040 Temporary: WHT ETNW 061720Z 16004KT 9999 FEW020 01/M00 Q1040 BLU+BLU+ TEMPO WHT
VFR 2°C / 0°C 150º 3kt >10km - Few Clouds 1200ft 1040 Temporary: WHT ETNW 061620Z 15003KT 9999 FEW012 02/00 Q1040 BLU+BLU+ TEMPO WHT
VFR 4°C / 2°C 80º 6kt >10km - Scattered Clouds 1100ft 1040 Temporary: WHT ETNW 061420Z 08006KT 9999 SCT011 04/02 Q1040 BLU+BLU+ TEMPO WHT
VFR 4°C / 1°C 70º 6kt >10km - Scattered Clouds 900ft 1040 Temporary: WHT ETNW 061340Z 07006KT 9999 SCT009 04/01 Q1040 BLU+BLU+ TEMPO WHT
IFR 4°C / 2°C 30º 4kt >10km - Broken Clouds 800ft 1040 Becoming: WHT ETNW 061320Z 03004KT 9999 BKN008 04/02 Q1040 GRN GRN BECMG WHT
IFR 4°C / 2°C 10º 3kt >10km - Broken Clouds 700ft 1040 Becoming: WHT ETNW 061300Z 01003KT 9999 BKN007 04/02 Q1040 GRN GRN BECMG WHT
IFR 4°C / 3°C 340º 4kt >10km - Broken Clouds 600ft 1040 Becoming: Hail . ETNW 061250Z 34004KT 9999 BKN006 04/03 Q1040 YLO YLO BECMG GRN
LIFR 3°C / 2°C 340º 5kt 8000m - Broken Clouds 400ft 1040 Becoming: Hail . ETNW 061240Z 34005KT 8000 BKN004 03/02 Q1040 YLO YLO BECMG GRN
LIFR 3°C / 3°C 320º 7kt 5000m Mist Vertical Visibility of 0ft. 1040 Becoming: Hail . ETNW 061220Z 32007KT 5000 BR BKN003 03/03 Q1040 YLO YLO BECMG GRN
LIFR 2°C / 2°C 320º 6kt 5000m Mist Vertical Visibility of 0ft. 1040 Becoming: Hail . ETNW 061213Z 32006KT 5000 BR BKN003 02/02 Q1040 YLO YLO BECMG GRN
LIFR 2°C / 2°C 320º 6kt 4500m Mist Vertical Visibility of 0ft. 1040 Temporary: YLO ETNW 061207Z 32006KT 4500 BR BKN003 02/02 Q1040 YLO RED TEMPO YLO
LIFR 2°C / 2°C 320º 5kt 900m. Runway 26: Visual range is 3300m and increasing. Fog Vertical Visibility of 0ft. 1040 Temporary: YLO ETNW 061120Z 32005KT 0900 R26/3300U FG VV001 02/02 Q1040 RED RED TEMPO YLO

-3°C / -4°C

[Mehr]
Wind 110º 4kt
Sichtweite >10km
Wetter -
Wolken
Druck 1040
Änderung -
Roh ETNW 070420Z 11004KT 9999 M03/M04 Q1040 BLU+

-4°C / -4°C

[Mehr]
Wind 90º 3kt
Sichtweite >10km
Wetter -
Wolken
Druck 1041
Änderung -
Roh ETNW 070320Z 09003KT 9999 M04/M04 Q1041 BLU+

-3°C / -4°C

[Mehr]
Wind 90º 3kt
Sichtweite >10km
Wetter -
Wolken
Druck 1041
Änderung -
Roh ETNW 070220Z 09003KT 9999 M03/M04 Q1041 BLU+

-3°C / -4°C

[Mehr]
Wind 150º 5kt
Sichtweite >10km
Wetter -
Wolken
Druck 1041
Änderung -
Roh ETNW 070120Z 15005KT 9999 M03/M04 Q1041 BLU+

-3°C / -3°C

[Mehr]
Wind 130º 2kt
Sichtweite >10km
Wetter -
Wolken
Druck 1041
Änderung -
Roh ETNW 070020Z 13002KT 9999 M03/M03 Q1041 BLU+

-2°C / -3°C

[Mehr]
Wind 120º 4kt
Sichtweite >10km
Wetter -
Wolken
Druck 1041
Änderung -
Roh ETNW 070000Z 12004KT 9999 M02/M03 Q1041 BLU+FCST CNL

-3°C / -3°C

[Mehr]
Wind 90º 3kt
Sichtweite >10km
Wetter -
Wolken
Druck 1041
Änderung Temporary: YLO
Roh ETNW 062335Z 09003KT 9999 M03/M03 Q1041 BLU+BLU+ TEMPO YLO

-2°C / -3°C

[Mehr]
Wind 90º 2kt
Sichtweite >10km
Wetter -
Wolken
Druck 1041
Änderung -
Roh ETNW 062320Z 09002KT 9999 M02/M03 Q1041 BLU+

-3°C / -3°C

[Mehr]
Wind 30º 3kt
Sichtweite >10km
Wetter -
Wolken
Druck 1041
Änderung -
Roh ETNW 062220Z 03003KT 9999 M03/M03 Q1041 BLU+

-2°C / -3°C

[Mehr]
Wind 160º 2kt
Sichtweite >10km
Wetter -
Wolken
Druck 1041
Änderung -
Roh ETNW 062120Z 16002KT 9999 M02/M03 Q1041 BLU+

VFR

0°C / -2°C

[Mehr]
Wind 100º 7kt
Sichtweite >10km
Wetter -
Wolken Few Clouds 2200ft
Druck 1040
Änderung -
Roh ETNW 062020Z 10007KT 9999 FEW022 00/M02 Q1040 BLU+FCST CNL

VFR

-1°C / -2°C

[Mehr]
Wind 120º 4kt
Sichtweite >10km
Wetter -
Wolken Few Clouds 2200ft
Druck 1040
Änderung Temporary: WHT
Roh ETNW 061920Z 12004KT 9999 FEW022 M01/M02 Q1040 BLU+BLU+ TEMPO WHT

VFR

1°C / 0°C

[Mehr]
Wind 160º 4kt
Sichtweite >10km
Wetter -
Wolken Few Clouds 2000ft
Druck 1040
Änderung Temporary: WHT
Roh ETNW 061720Z 16004KT 9999 FEW020 01/M00 Q1040 BLU+BLU+ TEMPO WHT

VFR

2°C / 0°C

[Mehr]
Wind 150º 3kt
Sichtweite >10km
Wetter -
Wolken Few Clouds 1200ft
Druck 1040
Änderung Temporary: WHT
Roh ETNW 061620Z 15003KT 9999 FEW012 02/00 Q1040 BLU+BLU+ TEMPO WHT

VFR

4°C / 2°C

[Mehr]
Wind 80º 6kt
Sichtweite >10km
Wetter -
Wolken Scattered Clouds 1100ft
Druck 1040
Änderung Temporary: WHT
Roh ETNW 061420Z 08006KT 9999 SCT011 04/02 Q1040 BLU+BLU+ TEMPO WHT

VFR

4°C / 1°C

[Mehr]
Wind 70º 6kt
Sichtweite >10km
Wetter -
Wolken Scattered Clouds 900ft
Druck 1040
Änderung Temporary: WHT
Roh ETNW 061340Z 07006KT 9999 SCT009 04/01 Q1040 BLU+BLU+ TEMPO WHT

IFR

4°C / 2°C

[Mehr]
Wind 30º 4kt
Sichtweite >10km
Wetter -
Wolken Broken Clouds 800ft
Druck 1040
Änderung Becoming: WHT
Roh ETNW 061320Z 03004KT 9999 BKN008 04/02 Q1040 GRN GRN BECMG WHT

IFR

4°C / 2°C

[Mehr]
Wind 10º 3kt
Sichtweite >10km
Wetter -
Wolken Broken Clouds 700ft
Druck 1040
Änderung Becoming: WHT
Roh ETNW 061300Z 01003KT 9999 BKN007 04/02 Q1040 GRN GRN BECMG WHT

IFR

4°C / 3°C

[Mehr]
Wind 340º 4kt
Sichtweite >10km
Wetter -
Wolken Broken Clouds 600ft
Druck 1040
Änderung Becoming: Hail .
Roh ETNW 061250Z 34004KT 9999 BKN006 04/03 Q1040 YLO YLO BECMG GRN

LIFR

3°C / 2°C

[Mehr]
Wind 340º 5kt
Sichtweite 8000m
Wetter -
Wolken Broken Clouds 400ft
Druck 1040
Änderung Becoming: Hail .
Roh ETNW 061240Z 34005KT 8000 BKN004 03/02 Q1040 YLO YLO BECMG GRN

LIFR

3°C / 3°C

[Mehr]
Wind 320º 7kt
Sichtweite 5000m
Wetter Mist
Wolken Vertical Visibility of 0ft.
Druck 1040
Änderung Becoming: Hail .
Roh ETNW 061220Z 32007KT 5000 BR BKN003 03/03 Q1040 YLO YLO BECMG GRN

LIFR

2°C / 2°C

[Mehr]
Wind 320º 6kt
Sichtweite 5000m
Wetter Mist
Wolken Vertical Visibility of 0ft.
Druck 1040
Änderung Becoming: Hail .
Roh ETNW 061213Z 32006KT 5000 BR BKN003 02/02 Q1040 YLO YLO BECMG GRN

LIFR

2°C / 2°C

[Mehr]
Wind 320º 6kt
Sichtweite 4500m
Wetter Mist
Wolken Vertical Visibility of 0ft.
Druck 1040
Änderung Temporary: YLO
Roh ETNW 061207Z 32006KT 4500 BR BKN003 02/02 Q1040 YLO RED TEMPO YLO

LIFR

2°C / 2°C

[Mehr]
Wind 320º 5kt
Sichtweite 900m. Runway 26: Visual range is 3300m and increasing.
Wetter Fog
Wolken Vertical Visibility of 0ft.
Druck 1040
Änderung Temporary: YLO
Roh ETNW 061120Z 32005KT 0900 R26/3300U FG VV001 02/02 Q1040 RED RED TEMPO YLO

TAF für Bordenau (ETNW)

From till


From till Wind 110º 5kt. Visibility 10km or more. Sky Clear.
With 30% probability, from till Wind variable 2kt. Visibility 498.895m. freezing Fog . Obscured Sky.
Temporarly from till Wind variable 3kt. Visibility 2000m. shallow Fog . Few Clouds 25000ft.

Roh: TAF AMD ETNW 070241Z 0702/0724 11005KT 9999 NSW SKC TEMPO 0702/0709 VRB03KT 2000 MIFG FEW250 PROB30 0702/0708 VRB02KT 0500 FZFG VV001 BY ETGL

rainNOW: Regenvorhersage für Bordenau und Umgebung (25km Radius)

0.0 mm
0.0 mm
0.0 mm
0.0 mm
0.0 mm
0.0 mm
0.0 mm
0.0 mm
0.0 mm
0.0 mm
0.0 mm
0.0 mm

Radar- und Niederschlags-Nowcast für Bordenau

Nieselregen
Leicht
Moderat
Stark
Sehr schwer
Hagel

Die Ortsmarkierung zeigt auf Bordenau. Diese Animation zeigt das Niederschlagsradar der letzten Stunde, sowie eine 2h Vorhersage. Nieselregen und leichter Schneefall können für das Radar unsichtbar sein. Die Niederschlagsintensität ist farbcodiert von Hellblau bis Orange.
Copyright 2023 Deutscher Wetterdienst / meteoblue.

Aktuelle Satelliten- und Regenbilder für Bordenau, Deutschland

Die Standortmarkierung ist platziert auf Bordenau. [Mehr]

Das Echtzeit-Satellitenbild kombiniert sichtbares Licht während des Tages mit Infrarotstrahlung während der Nacht. Nachts ist das Bild nicht dunkel, da Infrarotstrahlung Temperaturunterschiede erkennen kann. Leider sind niedrige Wolken und Nebel nur schwer von den Bodentemperaturen zu unterscheiden und können daher nachts fast unsichtbar sein. Meteosat-Satellitenbilder für Europa werden alle 5 Minuten in Echtzeit aktualisiert. Die Bilder GOES-16 / GOES-17 (Nord- und Südamerika) und Himawari (Asien) werden alle 10 Minuten aktualisiert.

Niederschläge werden von Radar und Satelliten berechnet. Nachts sind die Niederschlagsberechnungen durch die Satelliten weniger genau als tagsüber. Orangene Kreuze markieren Stellen, an denen Blitze aufgenommen wurden (über Europa).

Copyright 2023 EUMETSAT / meteoblue. Blitzdaten zur Verfügung gestellt von nowcast.

Zum Anfang